createdAt,value
2017-10-17T00:00:51.352Z,1020.02
2017-10-17T00:02:00.204Z,1020.04
2017-10-17T00:03:09.053Z,1020.05
2017-10-17T00:04:18.204Z,1020.06
2017-10-17T00:05:27.055Z,1020.06
2017-10-17T00:06:36.251Z,1020.09
2017-10-17T00:07:45.102Z,1020.08
2017-10-17T00:08:53.953Z,1020.11
2017-10-17T00:10:02.906Z,1020.1
2017-10-17T00:11:11.761Z,1020.1
2017-10-17T00:12:20.616Z,1020.14
2017-10-17T00:13:29.467Z,1020.14
2017-10-17T00:14:38.319Z,1020.16
2017-10-17T00:15:47.374Z,1020.12
2017-10-17T00:16:56.222Z,1020.09
2017-10-17T00:18:05.070Z,1020.12
2017-10-17T00:19:13.924Z,1020.05
2017-10-17T00:20:23.124Z,1020.06
2017-10-17T00:21:31.966Z,1020.06
2017-10-17T00:22:41.163Z,1020.05
2017-10-17T00:23:50.012Z,1020.06
2017-10-17T00:24:58.859Z,1020.07
2017-10-17T00:26:08.072Z,1020.03
2017-10-17T00:27:17.071Z,1020.01
2017-10-17T00:28:26.264Z,1020.01
2017-10-17T00:29:35.115Z,1020.03
2017-10-17T00:30:43.965Z,1020.02
2017-10-17T00:31:52.817Z,1020.01
2017-10-17T00:33:01.669Z,1020.02
2017-10-17T00:34:10.619Z,1020
2017-10-17T00:35:19.466Z,1019.99
2017-10-17T00:36:28.317Z,1019.99
2017-10-17T00:37:37.166Z,1019.99
2017-10-17T00:38:46.316Z,1019.98
2017-10-17T00:39:55.169Z,1019.98
2017-10-17T00:41:04.022Z,1019.96
2017-10-17T00:42:12.875Z,1019.99
2017-10-17T00:43:21.732Z,1019.99
2017-10-17T00:44:30.675Z,1020.01
2017-10-17T00:45:39.526Z,1019.98
2017-10-17T00:46:48.381Z,1019.98
2017-10-17T00:47:57.573Z,1019.94
2017-10-17T00:49:06.422Z,1019.99
2017-10-17T00:50:15.319Z,1019.98
2017-10-17T00:51:24.173Z,1020.01
2017-10-17T00:52:33.023Z,1019.99
2017-10-17T00:53:41.872Z,1020.01
2017-10-17T00:54:50.923Z,1020
2017-10-17T00:55:59.823Z,1020.01
2017-10-17T00:57:08.678Z,1020
2017-10-17T00:58:17.528Z,1020.02
2017-10-17T00:59:26.378Z,1020.01
2017-10-17T01:00:35.226Z,1020.04
2017-10-17T01:01:44.334Z,1019.99
2017-10-17T01:02:53.524Z,1020.03
2017-10-17T01:04:02.377Z,1020.02
2017-10-17T01:05:11.229Z,1020.04
2017-10-17T01:06:20.083Z,1020.02
2017-10-17T01:07:28.929Z,1020.06
2017-10-17T01:08:37.781Z,1020.05
2017-10-17T01:09:46.629Z,1020.04
2017-10-17T01:10:55.476Z,1020.13
2017-10-17T01:12:04.323Z,1020.11
2017-10-17T01:13:13.323Z,1020.09
2017-10-17T01:14:22.173Z,1020.09
2017-10-17T01:15:31.023Z,1020.06
2017-10-17T01:16:39.872Z,1020.06
2017-10-17T01:17:48.721Z,1020.04
2017-10-17T01:18:57.769Z,1020.06
2017-10-17T01:20:06.621Z,1020.02
2017-10-17T01:21:15.470Z,1019.98
2017-10-17T01:22:24.321Z,1020.05
2017-10-17T01:23:33.170Z,1020.03
2017-10-17T01:24:42.021Z,1020.01
2017-10-17T01:25:50.886Z,1020.01
2017-10-17T01:26:59.732Z,1020.04
2017-10-17T01:28:08.581Z,1020.01
2017-10-17T01:29:17.429Z,1020.06
2017-10-17T01:30:26.829Z,1020.04
2017-10-17T01:31:35.679Z,1020.03
2017-10-17T01:32:44.528Z,1020.02
2017-10-17T01:33:53.380Z,1020.01
2017-10-17T01:35:02.233Z,1020
2017-10-17T01:36:11.086Z,1020.03
2017-10-17T01:37:19.939Z,1020.05
2017-10-17T01:38:28.789Z,1020.05
2017-10-17T01:39:37.639Z,1020.05
2017-10-17T01:40:46.486Z,1020.05
2017-10-17T01:41:55.440Z,1020.08
2017-10-17T01:43:04.289Z,1020.05
2017-10-17T01:44:13.138Z,1020.07
2017-10-17T01:45:21.988Z,1020.06
2017-10-17T01:46:30.837Z,1020.1
2017-10-17T01:47:39.688Z,1020.06
2017-10-17T01:48:48.539Z,1020.06
2017-10-17T01:49:57.388Z,1020.04
2017-10-17T01:51:06.240Z,1020.02
2017-10-17T01:52:15.093Z,1020.06
2017-10-17T01:53:24.042Z,1020.04
2017-10-17T01:54:32.891Z,1020
2017-10-17T01:55:41.742Z,1019.96
2017-10-17T01:56:50.591Z,1019.95
2017-10-17T01:57:59.441Z,1019.97
2017-10-17T01:59:08.440Z,1019.93
2017-10-17T02:00:17.294Z,1019.94
2017-10-17T02:01:26.137Z,1020
2017-10-17T02:02:34.990Z,1019.97
2017-10-17T02:03:44.182Z,1019.96
2017-10-17T02:04:53.335Z,1019.94
2017-10-17T02:06:02.187Z,1019.91
2017-10-17T02:07:11.035Z,1019.89
2017-10-17T02:08:19.884Z,1019.93
2017-10-17T02:09:28.744Z,1019.91
2017-10-17T02:10:37.584Z,1019.92
2017-10-17T02:11:46.432Z,1019.9
2017-10-17T02:12:55.286Z,1019.92
2017-10-17T02:14:04.138Z,1019.87
2017-10-17T02:15:12.991Z,1019.9
2017-10-17T02:16:22.238Z,1019.86
2017-10-17T02:17:31.089Z,1019.89
2017-10-17T02:18:39.938Z,1019.85
2017-10-17T02:19:48.789Z,1019.85
2017-10-17T02:20:57.641Z,1019.89
2017-10-17T02:22:06.643Z,1019.88
2017-10-17T02:23:15.490Z,1019.87
2017-10-17T02:24:24.340Z,1019.87
2017-10-17T02:25:33.189Z,1019.88
2017-10-17T02:26:42.049Z,1019.91
2017-10-17T02:27:50.992Z,1019.87
2017-10-17T02:28:59.842Z,1019.91
2017-10-17T02:30:08.695Z,1019.91
2017-10-17T02:31:17.546Z,1019.9
2017-10-17T02:32:26.395Z,1019.96
2017-10-17T02:33:35.346Z,1019.94
2017-10-17T02:34:44.194Z,1019.95
2017-10-17T02:35:53.042Z,1019.95
2017-10-17T02:37:01.891Z,1019.92
2017-10-17T02:38:10.743Z,1019.92
2017-10-17T02:39:19.639Z,1019.91
2017-10-17T02:40:28.488Z,1019.93
2017-10-17T02:41:37.342Z,1019.94
2017-10-17T02:42:46.190Z,1019.96
2017-10-17T02:43:55.042Z,1019.95
2017-10-17T02:45:03.992Z,1019.98
2017-10-17T02:46:12.841Z,1019.99
2017-10-17T02:47:21.693Z,1019.99
2017-10-17T02:48:30.538Z,1020.04
2017-10-17T02:49:39.386Z,1020.09
2017-10-17T02:50:48.536Z,1020.1
2017-10-17T02:51:57.388Z,1020.09
2017-10-17T02:53:06.234Z,1020.04
2017-10-17T02:54:15.081Z,1020.06
2017-10-17T02:55:23.934Z,1020.06
2017-10-17T02:56:33.224Z,1020.05
2017-10-17T02:57:42.073Z,1020.06
2017-10-17T02:58:50.921Z,1020.05
2017-10-17T02:59:59.771Z,1020.06
2017-10-17T03:01:08.624Z,1020.08
2017-10-17T03:02:17.874Z,1020.1
2017-10-17T03:03:26.725Z,1020.18
2017-10-17T03:04:35.575Z,1020.15
2017-10-17T03:05:44.428Z,1020.13
2017-10-17T03:06:53.277Z,1020.12
2017-10-17T03:08:02.279Z,1020.13
2017-10-17T03:09:11.126Z,1020.14
2017-10-17T03:10:19.977Z,1020.12
2017-10-17T03:11:28.831Z,1020.11
2017-10-17T03:12:37.680Z,1020.15
2017-10-17T03:13:46.630Z,1020.15
2017-10-17T03:14:55.486Z,1020.16
2017-10-17T03:16:04.335Z,1020.18
2017-10-17T03:17:13.186Z,1020.17
2017-10-17T03:18:22.038Z,1020.19
2017-10-17T03:19:31.090Z,1020.22
2017-10-17T03:20:39.941Z,1020.2
2017-10-17T03:21:48.793Z,1020.18
2017-10-17T03:22:57.641Z,1020.14
2017-10-17T03:24:06.490Z,1020.16
2017-10-17T03:25:15.390Z,1020.22
2017-10-17T03:26:24.581Z,1020.21
2017-10-17T03:27:33.433Z,1020.19
2017-10-17T03:28:42.282Z,1020.2
2017-10-17T03:29:51.134Z,1020.19
2017-10-17T03:31:00.336Z,1020.2
2017-10-17T03:32:09.576Z,1020.2
2017-10-17T03:33:18.426Z,1020.22
2017-10-17T03:34:27.275Z,1020.18
2017-10-17T03:35:36.126Z,1020.17
2017-10-17T03:36:44.978Z,1020.22
2017-10-17T03:37:53.824Z,1020.21
2017-10-17T03:39:03.017Z,1020.21
2017-10-17T03:40:11.866Z,1020.2
2017-10-17T03:41:20.714Z,1020.23
2017-10-17T03:42:29.618Z,1020.23
2017-10-17T03:43:38.468Z,1020.23
2017-10-17T03:44:47.318Z,1020.24
2017-10-17T03:45:56.162Z,1020.24
2017-10-17T03:47:05.016Z,1020.21
2017-10-17T03:48:13.966Z,1020.21
2017-10-17T03:49:22.821Z,1020.21
2017-10-17T03:50:32.014Z,1020.21
2017-10-17T03:51:40.866Z,1020.23
2017-10-17T03:52:49.714Z,1020.24
2017-10-17T03:53:58.866Z,1020.26
2017-10-17T03:55:07.714Z,1020.21
2017-10-17T03:56:16.563Z,1020.21
2017-10-17T03:57:25.414Z,1020.21
2017-10-17T03:58:34.613Z,1020.22
2017-10-17T03:59:43.563Z,1020.21
2017-10-17T04:00:52.412Z,1020.23
2017-10-17T04:02:01.262Z,1020.28
2017-10-17T04:03:10.110Z,1020.28
2017-10-17T04:04:18.967Z,1020.27
2017-10-17T04:05:27.962Z,1020.26
2017-10-17T04:06:36.811Z,1020.24
2017-10-17T04:07:45.660Z,1020.24
2017-10-17T04:08:54.505Z,1020.24
2017-10-17T04:10:03.353Z,1020.2
2017-10-17T04:11:12.601Z,1020.19
2017-10-17T04:12:21.452Z,1020.19
2017-10-17T04:13:30.302Z,1020.2
2017-10-17T04:14:39.155Z,1020.18
2017-10-17T04:15:48.005Z,1020.22
2017-10-17T04:16:56.857Z,1020.21
2017-10-17T04:18:05.709Z,1020.23
2017-10-17T04:19:14.560Z,1020.22
2017-10-17T04:20:23.409Z,1020.22
2017-10-17T04:21:32.258Z,1020.27
2017-10-17T04:22:41.410Z,1020.25
2017-10-17T04:23:50.259Z,1020.23
2017-10-17T04:24:59.115Z,1020.25
2017-10-17T04:26:07.964Z,1020.25
2017-10-17T04:27:16.814Z,1020.28
2017-10-17T04:28:25.862Z,1020.32
2017-10-17T04:29:34.711Z,1020.26
2017-10-17T04:30:43.563Z,1020.34
2017-10-17T04:31:52.414Z,1020.3
2017-10-17T04:33:01.264Z,1020.28
2017-10-17T04:34:10.113Z,1020.29
2017-10-17T04:35:18.970Z,1020.27
2017-10-17T04:36:27.817Z,1020.31
2017-10-17T04:37:36.666Z,1020.28
2017-10-17T04:38:45.516Z,1020.27
2017-10-17T04:39:54.603Z,1020.28
2017-10-17T04:41:03.453Z,1020.21
2017-10-17T04:42:12.302Z,1020.26
2017-10-17T04:43:21.172Z,1020.25
2017-10-17T04:44:30.022Z,1020.25
2017-10-17T04:45:38.871Z,1020.3
2017-10-17T04:46:47.722Z,1020.27
2017-10-17T04:47:56.918Z,1020.27
2017-10-17T04:49:05.774Z,1020.29
2017-10-17T04:50:14.627Z,1020.33
2017-10-17T04:51:23.499Z,1020.3
2017-10-17T04:52:32.491Z,1020.28
2017-10-17T04:53:41.352Z,1020.24
2017-10-17T04:54:50.200Z,1020.27
2017-10-17T04:55:59.046Z,1020.28
2017-10-17T04:57:07.897Z,1020.27
2017-10-17T04:58:16.750Z,1020.24
2017-10-17T04:59:25.747Z,1020.23
2017-10-17T05:00:34.946Z,1020.23
2017-10-17T05:01:44.142Z,1020.22
2017-10-17T05:02:53.009Z,1020.25
2017-10-17T05:04:01.861Z,1020.24
2017-10-17T05:05:10.861Z,1020.3
2017-10-17T05:06:19.710Z,1020.29
2017-10-17T05:07:28.563Z,1020.3
2017-10-17T05:08:37.414Z,1020.32
2017-10-17T05:09:46.262Z,1020.28
2017-10-17T05:10:55.363Z,1020.25
2017-10-17T05:12:04.218Z,1020.24
2017-10-17T05:13:13.418Z,1020.27
2017-10-17T05:14:22.268Z,1020.21
2017-10-17T05:15:31.121Z,1020.19
2017-10-17T05:16:40.075Z,1020.22
2017-10-17T05:17:48.927Z,1020.22
2017-10-17T05:18:57.780Z,1020.24
2017-10-17T05:20:06.628Z,1020.25
2017-10-17T05:21:15.483Z,1020.24
2017-10-17T05:22:24.433Z,1020.23
2017-10-17T05:23:33.283Z,1020.29
2017-10-17T05:24:42.134Z,1020.33
2017-10-17T05:25:50.984Z,1020.27
2017-10-17T05:26:59.833Z,1020.35
2017-10-17T05:28:08.786Z,1020.33
2017-10-17T05:29:17.636Z,1020.37
2017-10-17T05:30:26.487Z,1020.39
2017-10-17T05:31:35.440Z,1020.39
2017-10-17T05:32:44.295Z,1020.44
2017-10-17T05:33:53.451Z,1020.41
2017-10-17T05:35:02.304Z,1020.45
2017-10-17T05:36:11.151Z,1020.47
2017-10-17T05:37:20.345Z,1020.44
2017-10-17T05:38:29.196Z,1020.4
2017-10-17T05:39:38.147Z,1020.43
2017-10-17T05:40:47.000Z,1020.39
2017-10-17T05:41:55.855Z,1020.44
2017-10-17T05:43:04.708Z,1020.46
2017-10-17T05:44:13.561Z,1020.47
2017-10-17T05:45:22.468Z,1020.49
2017-10-17T05:46:31.323Z,1020.45
2017-10-17T05:47:40.176Z,1020.41
2017-10-17T05:48:49.026Z,1020.42
2017-10-17T05:49:57.940Z,1020.41
2017-10-17T05:51:06.996Z,1020.45
2017-10-17T05:52:15.853Z,1020.46
2017-10-17T05:53:24.708Z,1020.53
2017-10-17T05:54:33.558Z,1020.5
2017-10-17T05:55:42.411Z,1020.5
2017-10-17T05:56:51.364Z,1020.5
2017-10-17T05:58:00.215Z,1020.53
2017-10-17T05:59:09.066Z,1020.55
2017-10-17T06:00:17.921Z,1020.51
2017-10-17T06:01:26.771Z,1020.51
2017-10-17T06:02:35.822Z,1020.52
2017-10-17T06:03:44.673Z,1020.54
2017-10-17T06:04:53.524Z,1020.56
2017-10-17T06:06:02.374Z,1020.53
2017-10-17T06:07:11.276Z,1020.49
2017-10-17T06:08:20.130Z,1020.53
2017-10-17T06:09:28.978Z,1020.59
2017-10-17T06:10:37.828Z,1020.6
2017-10-17T06:11:46.681Z,1020.62
2017-10-17T06:12:55.533Z,1020.62
2017-10-17T06:14:04.536Z,1020.54
2017-10-17T06:15:13.386Z,1020.59
2017-10-17T06:16:22.236Z,1020.59
2017-10-17T06:17:31.086Z,1020.66
2017-10-17T06:18:39.935Z,1020.68
2017-10-17T06:19:49.034Z,1020.72
2017-10-17T06:20:57.886Z,1020.76
2017-10-17T06:22:06.737Z,1020.76
2017-10-17T06:23:15.585Z,1020.74
2017-10-17T06:24:24.438Z,1020.78
2017-10-17T06:25:33.390Z,1020.78
2017-10-17T06:26:42.240Z,1020.78
2017-10-17T06:27:51.095Z,1020.76
2017-10-17T06:28:59.950Z,1020.79
2017-10-17T06:30:08.797Z,1020.8
2017-10-17T06:31:18.093Z,1020.85
2017-10-17T06:32:26.943Z,1020.84
2017-10-17T06:33:35.791Z,1020.86
2017-10-17T06:34:44.638Z,1020.85
2017-10-17T06:35:53.488Z,1020.9
2017-10-17T06:37:02.395Z,1020.88
2017-10-17T06:38:11.240Z,1020.88
2017-10-17T06:39:20.436Z,1020.94
2017-10-17T06:40:29.286Z,1020.95
2017-10-17T06:41:38.137Z,1020.95
2017-10-17T06:42:47.630Z,1020.99
2017-10-17T06:43:56.480Z,1021.01
2017-10-17T06:45:05.330Z,1020.96
2017-10-17T06:46:14.183Z,1021
2017-10-17T06:47:23.035Z,1021.03
2017-10-17T06:48:31.938Z,1021.03
2017-10-17T06:49:40.788Z,1021.07
2017-10-17T06:50:49.636Z,1021.03
2017-10-17T06:51:58.488Z,1021.04
2017-10-17T06:53:07.338Z,1021.05
2017-10-17T06:54:16.340Z,1021.06
2017-10-17T06:55:25.189Z,1021.03
2017-10-17T06:56:34.039Z,1021.06
2017-10-17T06:57:42.889Z,1021.01
2017-10-17T06:58:51.741Z,1021.05
2017-10-17T07:00:01.585Z,1021.05
2017-10-17T07:01:10.436Z,1021.07
2017-10-17T07:02:19.292Z,1021.07
2017-10-17T07:03:28.138Z,1021.1
2017-10-17T07:04:36.992Z,1021.06
2017-10-17T07:05:45.842Z,1021.11
2017-10-17T07:06:54.695Z,1021.06
2017-10-17T07:08:03.549Z,1021.06
2017-10-17T07:09:12.396Z,1021.03
2017-10-17T07:10:21.250Z,1021.07
2017-10-17T07:11:30.100Z,1021.05
2017-10-17T07:12:38.951Z,1021.06
2017-10-17T07:13:47.803Z,1021.04
2017-10-17T07:14:56.654Z,1021.06
2017-10-17T07:16:05.504Z,1021.06
2017-10-17T07:17:14.353Z,1021.08
2017-10-17T07:18:23.203Z,1021.15
2017-10-17T07:19:32.053Z,1021.11
2017-10-17T07:20:40.904Z,1021.06
2017-10-17T07:21:49.753Z,1021.1
2017-10-17T07:22:58.655Z,1021.09
2017-10-17T07:24:07.503Z,1021.1
2017-10-17T07:25:16.354Z,1021.08
2017-10-17T07:26:25.204Z,1021.06
2017-10-17T07:27:34.054Z,1021.09
2017-10-17T07:28:43.205Z,1021.11
2017-10-17T07:29:52.056Z,1021.15
2017-10-17T07:31:00.907Z,1021.18
2017-10-17T07:32:09.758Z,1021.14
2017-10-17T07:33:18.609Z,1021.16
2017-10-17T07:34:27.660Z,1021.16
2017-10-17T07:35:36.515Z,1021.23
2017-10-17T07:36:45.360Z,1021.22
2017-10-17T07:37:54.213Z,1021.18
2017-10-17T07:39:03.405Z,1021.17
2017-10-17T07:40:12.406Z,1021.2
2017-10-17T07:41:21.254Z,1021.2
2017-10-17T07:42:30.454Z,1021.19
2017-10-17T07:43:39.306Z,1021.19
2017-10-17T07:44:48.160Z,1021.22
2017-10-17T07:45:57.060Z,1021.19
2017-10-17T07:47:05.915Z,1021.19
2017-10-17T07:48:14.764Z,1021.24
2017-10-17T07:49:23.616Z,1021.22
2017-10-17T07:50:32.469Z,1021.2
2017-10-17T07:51:41.423Z,1021.23
2017-10-17T07:52:50.269Z,1021.21
2017-10-17T07:53:59.119Z,1021.27
2017-10-17T07:55:07.969Z,1021.27
2017-10-17T07:56:16.819Z,1021.24
2017-10-17T07:57:25.720Z,1021.33
2017-10-17T07:58:34.572Z,1021.34
2017-10-17T07:59:43.426Z,1021.36
2017-10-17T08:00:52.273Z,1021.38
2017-10-17T08:02:01.124Z,1021.37
2017-10-17T08:03:10.275Z,1021.4
2017-10-17T08:04:19.123Z,1021.36
2017-10-17T08:05:27.971Z,1021.39
2017-10-17T08:06:36.821Z,1021.4
2017-10-17T08:07:45.671Z,1021.37
2017-10-17T08:08:54.621Z,1021.38
2017-10-17T08:10:03.474Z,1021.44
2017-10-17T08:11:12.322Z,1021.41
2017-10-17T08:12:21.173Z,1021.42
2017-10-17T08:13:30.021Z,1021.42
2017-10-17T08:14:38.972Z,1021.4
2017-10-17T08:15:47.821Z,1021.41
2017-10-17T08:16:56.674Z,1021.43
2017-10-17T08:18:05.531Z,1021.41
2017-10-17T08:19:14.381Z,1021.43
2017-10-17T08:20:23.335Z,1021.43
2017-10-17T08:21:32.186Z,1021.44
2017-10-17T08:22:41.034Z,1021.45
2017-10-17T08:23:49.886Z,1021.41
2017-10-17T08:24:58.736Z,1021.46
2017-10-17T08:26:07.587Z,1021.38
2017-10-17T08:27:16.793Z,1021.46
2017-10-17T08:28:25.644Z,1021.46
2017-10-17T08:29:34.494Z,1021.46
2017-10-17T08:30:43.343Z,1021.53
2017-10-17T08:31:52.191Z,1021.47
2017-10-17T08:33:01.044Z,1021.44
2017-10-17T08:34:09.894Z,1021.46
2017-10-17T08:35:18.744Z,1021.45
2017-10-17T08:36:27.597Z,1021.47
2017-10-17T08:37:37.042Z,1021.47
2017-10-17T08:38:45.893Z,1021.45
2017-10-17T08:39:54.744Z,1021.47
2017-10-17T08:41:03.599Z,1021.49
2017-10-17T08:42:12.794Z,1021.45
2017-10-17T08:43:22.244Z,1021.44
2017-10-17T08:44:31.097Z,1021.45
2017-10-17T08:45:39.951Z,1021.45
2017-10-17T08:46:48.800Z,1021.41
2017-10-17T08:47:57.651Z,1021.41
2017-10-17T08:49:06.652Z,1021.41
2017-10-17T08:50:15.503Z,1021.39
2017-10-17T08:51:24.357Z,1021.49
2017-10-17T08:52:33.210Z,1021.43
2017-10-17T08:53:42.062Z,1021.42
2017-10-17T08:54:51.070Z,1021.45
2017-10-17T08:55:59.925Z,1021.41
2017-10-17T08:57:08.775Z,1021.4
2017-10-17T08:58:17.628Z,1021.42
2017-10-17T08:59:26.478Z,1021.41
2017-10-17T09:00:35.328Z,1021.41
2017-10-17T09:01:44.871Z,1021.39
2017-10-17T09:02:53.723Z,1021.45
2017-10-17T09:04:02.573Z,1021.44
2017-10-17T09:05:11.421Z,1021.48
2017-10-17T09:06:20.373Z,1021.42
2017-10-17T09:07:29.223Z,1021.43
2017-10-17T09:08:38.075Z,1021.41
2017-10-17T09:09:46.928Z,1021.42
2017-10-17T09:10:55.782Z,1021.44
2017-10-17T09:12:04.787Z,1021.46
2017-10-17T09:13:13.632Z,1021.38
2017-10-17T09:14:22.487Z,1021.41
2017-10-17T09:15:31.337Z,1021.45
2017-10-17T09:16:40.190Z,1021.43
2017-10-17T09:17:49.441Z,1021.49
2017-10-17T09:18:58.294Z,1021.45
2017-10-17T09:20:07.511Z,1021.48
2017-10-17T09:21:16.361Z,1021.49
2017-10-17T09:22:25.213Z,1021.52
2017-10-17T09:23:34.163Z,1021.52
2017-10-17T09:24:43.018Z,1021.5
2017-10-17T09:25:51.872Z,1021.47
2017-10-17T09:27:01.068Z,1021.49
2017-10-17T09:28:09.919Z,1021.44
2017-10-17T09:29:18.919Z,1021.52
2017-10-17T09:30:27.771Z,1021.46
2017-10-17T09:31:36.624Z,1021.49
2017-10-17T09:32:45.477Z,1021.51
2017-10-17T09:33:54.329Z,1021.47
2017-10-17T09:35:03.335Z,1021.49
2017-10-17T09:36:12.187Z,1021.42
2017-10-17T09:37:21.036Z,1021.4
2017-10-17T09:38:29.887Z,1021.37
2017-10-17T09:39:38.736Z,1021.42
2017-10-17T09:40:47.692Z,1021.46
2017-10-17T09:41:56.544Z,1021.46
2017-10-17T09:43:05.740Z,1021.48
2017-10-17T09:44:14.588Z,1021.43
2017-10-17T09:45:23.441Z,1021.44
2017-10-17T09:46:32.492Z,1021.36
2017-10-17T09:47:41.345Z,1021.37
2017-10-17T09:48:50.195Z,1021.39
2017-10-17T09:49:59.051Z,1021.44
2017-10-17T09:51:07.902Z,1021.44
2017-10-17T09:52:17.005Z,1021.46
2017-10-17T09:53:25.858Z,1021.43
2017-10-17T09:54:34.709Z,1021.49
2017-10-17T09:55:43.561Z,1021.47
2017-10-17T09:56:52.412Z,1021.5
2017-10-17T09:58:01.362Z,1021.43
2017-10-17T09:59:10.572Z,1021.5
2017-10-17T10:00:19.419Z,1021.5
2017-10-17T10:01:28.269Z,1021.5
2017-10-17T10:02:37.120Z,1021.53
2017-10-17T10:03:46.173Z,1021.51
2017-10-17T10:04:55.027Z,1021.53
2017-10-17T10:06:03.879Z,1021.51
2017-10-17T10:07:12.733Z,1021.48
2017-10-17T10:08:21.585Z,1021.49
2017-10-17T10:09:30.739Z,1021.39
2017-10-17T10:10:39.592Z,1021.39
2017-10-17T10:11:48.446Z,1021.42
2017-10-17T10:12:57.298Z,1021.39
2017-10-17T10:14:06.151Z,1021.45
2017-10-17T10:15:15.203Z,1021.4
2017-10-17T10:16:24.400Z,1021.42
2017-10-17T10:17:33.251Z,1021.45
2017-10-17T10:18:42.451Z,1021.47
2017-10-17T10:19:51.304Z,1021.44
2017-10-17T10:21:00.265Z,1021.44
2017-10-17T10:22:09.112Z,1021.42
2017-10-17T10:23:17.963Z,1021.46
2017-10-17T10:24:26.814Z,1021.45
2017-10-17T10:25:35.669Z,1021.42
2017-10-17T10:26:44.630Z,1021.46
2017-10-17T10:27:53.475Z,1021.45
2017-10-17T10:29:02.680Z,1021.46
2017-10-17T10:30:11.523Z,1021.48
2017-10-17T10:31:20.371Z,1021.43
2017-10-17T10:32:29.327Z,1021.44
2017-10-17T10:33:38.177Z,1021.42
2017-10-17T10:34:47.026Z,1021.37
2017-10-17T10:35:55.879Z,1021.42
2017-10-17T10:37:04.733Z,1021.4
2017-10-17T10:38:13.789Z,1021.37
2017-10-17T10:39:22.639Z,1021.39
2017-10-17T10:40:31.494Z,1021.36
2017-10-17T10:41:40.344Z,1021.36
2017-10-17T10:42:49.195Z,1021.35
2017-10-17T10:43:58.251Z,1021.29
2017-10-17T10:45:07.101Z,1021.29
2017-10-17T10:46:15.953Z,1021.25
2017-10-17T10:47:24.809Z,1021.24
2017-10-17T10:48:34.007Z,1021.3
2017-10-17T10:49:43.061Z,1021.29
2017-10-17T10:50:51.914Z,1021.3
2017-10-17T10:52:00.767Z,1021.26
2017-10-17T10:53:09.619Z,1021.27
2017-10-17T10:54:18.472Z,1021.25
2017-10-17T10:55:27.323Z,1021.29
2017-10-17T10:56:36.176Z,1021.27
2017-10-17T10:57:45.028Z,1021.24
2017-10-17T10:58:53.881Z,1021.22
2017-10-17T11:00:02.740Z,1021.21
2017-10-17T11:01:11.790Z,1021.21
2017-10-17T11:02:20.645Z,1021.2
2017-10-17T11:03:29.496Z,1021.2
2017-10-17T11:04:38.350Z,1021.17
2017-10-17T11:05:47.203Z,1021.12
2017-10-17T11:06:56.160Z,1021.12
2017-10-17T11:08:05.014Z,1021.14
2017-10-17T11:09:13.867Z,1021.09
2017-10-17T11:10:22.720Z,1021.06
2017-10-17T11:11:31.919Z,1021.06
2017-10-17T11:12:41.024Z,1021.05
2017-10-17T11:13:49.875Z,1021.03
2017-10-17T11:14:58.729Z,1021.03
2017-10-17T11:16:07.581Z,1021.04
2017-10-17T11:17:16.434Z,1021.05
2017-10-17T11:18:25.535Z,1021.01
2017-10-17T11:19:34.387Z,1021.03
2017-10-17T11:20:43.240Z,1020.97
2017-10-17T11:21:52.091Z,1021.01
2017-10-17T11:23:00.945Z,1021
2017-10-17T11:24:09.953Z,1020.93
2017-10-17T11:25:18.802Z,1020.92
2017-10-17T11:26:27.660Z,1020.96
2017-10-17T11:27:36.512Z,1020.92
2017-10-17T11:28:45.365Z,1021.05
2017-10-17T11:29:54.319Z,1020.93
2017-10-17T11:31:03.519Z,1020.89
2017-10-17T11:32:12.377Z,1020.89
2017-10-17T11:33:21.281Z,1020.91
2017-10-17T11:34:30.132Z,1020.9
2017-10-17T11:35:39.038Z,1020.87
2017-10-17T11:36:47.892Z,1020.88
2017-10-17T11:37:56.765Z,1020.83
2017-10-17T11:39:05.620Z,1020.82
2017-10-17T11:40:14.767Z,1020.89
2017-10-17T11:41:24.067Z,1020.83
2017-10-17T11:42:32.922Z,1020.81
2017-10-17T11:43:41.773Z,1020.75
2017-10-17T11:44:50.630Z,1020.74
2017-10-17T11:45:59.479Z,1020.74
2017-10-17T11:47:08.379Z,1020.76
2017-10-17T11:48:17.233Z,1020.69
2017-10-17T11:49:26.082Z,1020.72
2017-10-17T11:50:34.936Z,1020.67
2017-10-17T11:51:43.790Z,1020.64
2017-10-17T11:52:52.840Z,1020.62
2017-10-17T11:54:01.695Z,1020.63
2017-10-17T11:55:10.551Z,1020.63
2017-10-17T11:56:19.404Z,1020.61
2017-10-17T11:57:28.261Z,1020.61
2017-10-17T11:58:37.214Z,1020.59
2017-10-17T11:59:46.072Z,1020.62
2017-10-17T12:00:54.925Z,1020.56
2017-10-17T12:02:03.781Z,1020.59
2017-10-17T12:03:12.981Z,1020.56
2017-10-17T12:04:21.935Z,1020.53
2017-10-17T12:05:30.787Z,1020.53
2017-10-17T12:06:39.892Z,1020.44
2017-10-17T12:07:48.964Z,1020.47
2017-10-17T12:08:57.824Z,1020.46
2017-10-17T12:10:06.874Z,1020.49
2017-10-17T12:11:15.734Z,1020.55
2017-10-17T12:12:24.932Z,1020.49
2017-10-17T12:13:33.789Z,1020.5
2017-10-17T12:14:42.642Z,1020.45
2017-10-17T12:15:51.798Z,1020.44
2017-10-17T12:17:00.657Z,1020.47
2017-10-17T12:18:09.512Z,1020.38
2017-10-17T12:19:18.365Z,1020.47
2017-10-17T12:20:27.214Z,1020.42
2017-10-17T12:21:36.269Z,1020.43
2017-10-17T12:22:45.122Z,1020.38
2017-10-17T12:23:53.974Z,1020.35
2017-10-17T12:25:02.829Z,1020.35
2017-10-17T12:26:11.686Z,1020.36
2017-10-17T12:27:20.540Z,1020.37
2017-10-17T12:28:29.396Z,1020.35
2017-10-17T12:29:38.276Z,1020.37
2017-10-17T12:30:48.856Z,1020.34
2017-10-17T12:31:59.029Z,1020.32
2017-10-17T12:33:08.454Z,1020.28
2017-10-17T12:34:17.313Z,1020.28
2017-10-17T12:35:26.173Z,1020.23
2017-10-17T12:36:37.273Z,1020.24
2017-10-17T12:37:46.427Z,1020.22
2017-10-17T12:38:56.062Z,1020.21
2017-10-17T12:40:04.977Z,1020.28
2017-10-17T12:41:14.473Z,1020.3
2017-10-17T12:42:24.052Z,1020.27
2017-10-17T12:43:33.448Z,1020.27
2017-10-17T12:44:42.625Z,1020.26
2017-10-17T12:45:52.041Z,1020.25
2017-10-17T12:47:01.478Z,1020.25
2017-10-17T12:48:10.874Z,1020.26
2017-10-17T12:49:20.672Z,1020.24
2017-10-17T12:50:31.086Z,1020.28
2017-10-17T12:51:40.511Z,1020.19
2017-10-17T12:52:49.389Z,1020.29
2017-10-17T12:53:59.058Z,1020.28
2017-10-17T12:55:08.010Z,1020.2
2017-10-17T12:56:17.542Z,1020.16
2017-10-17T12:57:26.774Z,1020.15
2017-10-17T12:58:36.718Z,1020.13
2017-10-17T12:59:45.651Z,1020.1
2017-10-17T13:00:54.501Z,1020.11
2017-10-17T13:02:03.509Z,1020.08
2017-10-17T13:03:12.361Z,1020.09
2017-10-17T13:04:21.216Z,1020.11
2017-10-17T13:05:30.071Z,1020.01
2017-10-17T13:06:38.926Z,1020.04
2017-10-17T13:07:47.878Z,1020.08
2017-10-17T13:08:56.731Z,1020.07
2017-10-17T13:10:05.935Z,1020.06
2017-10-17T13:11:14.789Z,1020.05
2017-10-17T13:12:23.645Z,1020.08
2017-10-17T13:13:32.701Z,1020.09
2017-10-17T13:14:41.557Z,1020.02
2017-10-17T13:15:50.413Z,1020.03
2017-10-17T13:16:59.266Z,1019.95
2017-10-17T13:18:08.123Z,1020
2017-10-17T13:19:17.077Z,1020.03
2017-10-17T13:20:25.933Z,1020
2017-10-17T13:21:34.785Z,1019.99
2017-10-17T13:22:43.640Z,1019.93
2017-10-17T13:23:52.494Z,1019.87
2017-10-17T13:25:01.651Z,1019.88
2017-10-17T13:26:10.508Z,1019.9
2017-10-17T13:27:19.363Z,1019.87
2017-10-17T13:28:28.222Z,1019.87
2017-10-17T13:29:37.095Z,1019.86
2017-10-17T13:30:45.932Z,1019.88
2017-10-17T13:31:54.786Z,1019.86
2017-10-17T13:33:03.647Z,1019.89
2017-10-17T13:34:12.505Z,1019.86
2017-10-17T13:35:21.382Z,1019.86
2017-10-17T13:36:30.341Z,1019.86
2017-10-17T13:37:39.186Z,1019.89
2017-10-17T13:38:48.038Z,1019.84
2017-10-17T13:39:56.891Z,1019.88
2017-10-17T13:41:05.744Z,1019.87
2017-10-17T13:42:14.600Z,1019.87
2017-10-17T13:43:23.475Z,1019.81
2017-10-17T13:44:32.330Z,1019.8
2017-10-17T13:45:41.186Z,1019.83
2017-10-17T13:46:50.043Z,1019.77
2017-10-17T13:47:58.899Z,1019.75
2017-10-17T13:49:07.760Z,1019.78
2017-10-17T13:50:16.615Z,1019.81
2017-10-17T13:51:25.481Z,1019.79
2017-10-17T13:52:34.359Z,1019.74
2017-10-17T13:53:43.225Z,1019.7
2017-10-17T13:54:52.079Z,1019.7
2017-10-17T13:56:00.934Z,1019.73
2017-10-17T13:57:09.786Z,1019.71